Flight Track Log - Related Links

Times and Time Zones

All times are in EDT time to prevent confusion due to time zone crossing. See the N777NC flight status page for this flight to view local times or setup timezone preferences in your user account.

Time Position Orientation Groundspeed Altitude Reporting Facility
EDT Latitude Longitude Course Direction KTS MPH feet Rate Location/Type
Thu 08:24:46 AM 33.6500 -84.3833 North 167 192 2,500  Level Atlanta TRACON
Thu 08:25:46 AM 33.6833 -84.3167 59° Northeast 258 297 3,900 1,895 Climbing Atlanta TRACON
Thu 08:26:40 AM 33.7333 -84.2667 40° Northeast 303 349 6,100 2,421 Climbing Atlanta TRACON
Thu 08:27:40 AM 33.8167 -84.2667 360° North 315 362 8,500 1,918 Climbing Atlanta TRACON
Thu 08:28:00 AM 34.1160 -84.3120 North  Level FlightAware Approximate
Thu 08:29:00 AM 34.2380 -84.3000 North  Level FlightAware Approximate
Thu 08:29:54 AM 34.0297 -84.2944 354° North 352 405 12,300  Level Atlanta Center
Thu 08:30:54 AM 34.1406 -84.3072 355° North 381 438 14,000 1,850 Climbing Atlanta Center
Thu 08:31:54 AM 34.2553 -84.3103 359° North 400 460 16,000 2,000 Climbing Atlanta Center
Thu 08:32:54 AM 34.3658 -84.3181 357° North 405 466 18,000 1,550 Climbing Atlanta Center
Thu 08:33:54 AM 34.4806 -84.3183 360° North 405 466 19,100 1,150 Climbing Atlanta Center
Thu 08:34:54 AM 34.5975 -84.3214 359° North 405 466 20,300 1,250 Climbing Atlanta Center
Thu 08:35:54 AM 34.7186 -84.3244 359° North 419 482 21,600 1,250 Climbing Atlanta Center
Thu 08:36:54 AM 34.8394 -84.3297 358° North 424 488 22,800 950 Climbing Atlanta Center
Thu 08:37:54 AM 34.9625 -84.3378 357° North 434 499 23,500 950 Climbing Atlanta Center
Thu 08:38:54 AM 35.0919 -84.3333 North 441 507 24,700 1,050 Climbing Atlanta Center
Thu 08:39:54 AM 35.2214 -84.3183 North 452 520 25,600 650 Climbing Atlanta Center
Thu 08:40:54 AM 35.3592 -84.3139 North 470 541 26,000 200 Climbing Atlanta Center
Thu 08:41:54 AM 35.4969 -84.3067 North 487 560 26,000 300 Level Atlanta Center
Thu 08:42:54 AM 35.6386 -84.2942 North 500 575 26,600 600 Climbing Atlanta Center
Thu 08:43:54 AM 35.7828 -84.2922 North 505 581 27,200 804 Climbing Atlanta Center
Thu 08:45:53 AM 36.0636 -84.2758 North 513 590 29,000 895 Climbing Indianapolis Center
Thu 08:46:55 AM 36.2033 -84.2722 North 506 582 29,900 878 Climbing Indianapolis Center
Thu 08:47:56 AM 36.3431 -84.2706 North 504 580 30,800 836 Climbing Indianapolis Center
Thu 08:48:57 AM 36.4808 -84.2581 North 500 575 31,600 590 Climbing Indianapolis Center
Thu 08:49:58 AM 36.6169 -84.2394 North 499 574 32,000 197 Climbing Indianapolis Center
Thu 08:50:59 AM 36.7600 -84.2122 North 510 587 32,000  Level Indianapolis Center
Thu 08:52:00 AM 36.9072 -84.2094 North 521 600 32,000  Level Indianapolis Center
Thu 08:53:01 AM 37.0792 -84.2217 357° North 526 605 32,000  Level Indianapolis Center
Thu 08:54:02 AM 37.2272 -84.2389 355° North 530 610 32,000  Level Indianapolis Center
Thu 08:55:04 AM 37.3744 -84.2628 353° North 532 612 32,000  Level Indianapolis Center
Thu 08:56:05 AM 37.5208 -84.2794 355° North 527 606 32,000  Level Indianapolis Center
Thu 08:57:06 AM 37.6706 -84.2911 356° North 530 610 32,000  Level Indianapolis Center
Thu 08:58:07 AM 37.8147 -84.3172 352° North 521 600 32,000 -246 Level Indianapolis Center
Thu 08:59:08 AM 37.9603 -84.3322 355° North 525 604 31,500 -689 Descending Indianapolis Center
Thu 09:00:09 AM 38.1106 -84.3253 North 537 618 30,600 -927 Descending Indianapolis Center
Thu 09:01:11 AM 38.2567 -84.3114 North 527 606 29,600 -1,756 Descending Indianapolis Center
Thu 09:02:12 AM 38.3917 -84.2983 North 488 562 27,000 -3,393 Descending Indianapolis Center
Thu 09:03:13 AM 38.5283 -84.2944 North 490 564 22,700 -3,885 Descending Indianapolis Center
Thu 09:04:14 AM 38.6731 -84.3356 347° North 483 556 19,100 -2,852 Descending Indianapolis Center
Thu 09:05:15 AM 38.7875 -84.3836 342° North 427 491 16,900 -2,195 Descending Indianapolis Center
Thu 09:06:17 AM 38.8944 -84.4061 351° North 387 445 14,600 -1,707 Descending Indianapolis Center
Thu 09:07:18 AM 38.9867 -84.4414 343° North 347 399 13,400 -1,426 Descending Indianapolis Center
Thu 09:08:19 AM 39.0708 -84.4828 339° North 324 373 11,700 -1,525 Descending Indianapolis Center
Thu 09:09:20 AM 39.1592 -84.5067 348° North 321 369 10,300 -829 Descending Indianapolis Center
Thu 09:10:22 AM 39.2467 -84.5156 356° North 321 369 10,000 -189 Descending Indianapolis Center
Thu 09:10:55 AM 39.2931 -84.4811 30° Northeast 309 356 10,000  Level Indianapolis Center
Thu 09:11:56 AM 39.3636 -84.4125 37° Northeast 317 365 10,000  Level Indianapolis Center
Thu 09:12:57 AM 39.4486 -84.3275 38° Northeast 371 427 10,000  Level Indianapolis Center
Thu 09:13:58 AM 39.5369 -84.2508 34° Northeast 390 449 10,000 -50 Level Indianapolis Center
Thu 09:14:58 AM 39.6272 -84.1744 33° Northeast 392 451 9,900 -67 Descending Indianapolis Center
Thu 09:15:28 AM 39.6619 -84.1439 34° Northeast 391 450 9,900  Level Indianapolis Center
Thu 09:15:59 AM 39.7172 -84.0978 33° Northeast 360 414 9,900 -97 Level Indianapolis Center
Thu 09:16:30 AM 39.7492 -84.0739 30° Northeast 370 426 9,800 -1,239 Descending Indianapolis Center
Thu 09:17:31 AM 39.8194 -84.0206 30° Northeast 296 341 8,000 -2,164 Descending Indianapolis Center
Thu 09:18:32 AM 39.8911 -83.9864 20° North 286 329 5,400 -2,439 Descending Indianapolis Center
Thu 09:19:34 AM 39.9764 -83.9889 359° North 263 303 3,000 -1,220 Descending Indianapolis Center
Thu 09:20:35 AM 39.9767 -84.0572 270° West 222 255 2,900 -98 Descending Indianapolis Center

Login

Don't have an account? Register now (free) for customized features, flight alerts, and more!